createdAt,value
2022-09-15T03:38:42.644Z,99807.63
2022-09-15T03:44:04.195Z,99813.53
2022-09-15T03:49:25.753Z,99812.53
2022-09-15T03:54:48.707Z,99810.03
2022-09-15T04:00:10.404Z,99808.44
2022-09-15T04:05:31.159Z,99805.69
2022-09-15T04:10:52.176Z,99804.81
2022-09-15T04:16:14.217Z,99798.69
2022-09-15T04:21:34.904Z,99789.84
2022-09-15T04:26:55.653Z,99794.88
2022-09-15T04:32:16.540Z,99791.97
2022-09-15T04:37:39.286Z,99799.44
2022-09-15T04:43:00.194Z,99787.78
2022-09-15T04:48:22.326Z,99792.38
2022-09-15T04:53:43.761Z,99791.75
2022-09-15T04:59:04.734Z,99797.19
2022-09-15T05:04:25.736Z,99785.19
2022-09-15T05:09:46.877Z,99789.59
2022-09-15T05:15:08.242Z,99791.47
2022-09-15T05:20:29.789Z,99784.75
2022-09-15T05:25:56.014Z,99789.69
2022-09-15T05:31:19.962Z,99792.91
2022-09-15T05:36:40.731Z,99802.38
2022-09-15T05:42:01.667Z,99794.78
2022-09-15T05:47:22.796Z,99796.91
2022-09-15T05:52:43.759Z,99801.78
2022-09-15T05:58:04.502Z,99804.16
2022-09-15T06:03:30.068Z,99792.56
2022-09-15T06:08:58.081Z,99798.22
2022-09-15T06:14:19.970Z,99805.31
2022-09-15T06:19:40.683Z,99802.47
2022-09-15T06:25:01.585Z,99802.06
2022-09-15T06:30:22.236Z,99819.09
2022-09-15T06:35:43.278Z,99827.38
2022-09-15T06:41:04.714Z,99815.28
2022-09-15T06:46:26.661Z,99815.03
2022-09-15T06:51:48.250Z,99817.41
2022-09-15T06:57:09.152Z,99823.97
2022-09-15T07:02:29.875Z,99825.94
2022-09-15T07:07:50.707Z,99822.88
2022-09-15T07:13:11.738Z,99825.47
2022-09-15T07:18:32.993Z,99844.25
2022-09-15T07:23:57.097Z,99834.84
2022-09-15T07:29:18.022Z,99842.00
2022-09-15T07:34:38.657Z,99850.31
2022-09-15T07:40:00.058Z,99849.41
2022-09-15T07:45:20.655Z,99848.81
2022-09-15T07:50:41.290Z,99841.88
2022-09-15T07:56:01.824Z,99844.56
2022-09-15T08:01:22.820Z,99851.19
2022-09-15T08:06:44.596Z,99841.41
2022-09-15T08:12:06.801Z,99856.66
2022-09-15T08:17:28.213Z,99859.97
2022-09-15T08:22:48.603Z,99865.00
2022-09-15T08:28:09.868Z,99851.59
2022-09-15T08:33:30.770Z,99854.19
2022-09-15T08:38:51.580Z,99856.75
2022-09-15T08:44:21.352Z,99866.31
2022-09-15T08:49:52.533Z,99880.41
2022-09-15T08:55:21.045Z,99879.09
2022-09-15T09:00:43.935Z,99869.56
2022-09-15T09:06:39.019Z,99867.09
2022-09-15T09:12:18.328Z,99865.97
2022-09-15T09:17:57.433Z,99869.66
2022-09-15T09:23:24.185Z,99876.81
2022-09-15T09:28:58.855Z,99874.34
2022-09-15T09:34:31.117Z,99886.38
2022-09-15T09:39:52.183Z,99887.31
2022-09-15T09:45:15.700Z,99885.94
2022-09-15T09:50:42.829Z,99877.19
2022-09-15T09:56:39.934Z,99870.44
2022-09-15T10:02:18.868Z,99870.00
2022-09-15T10:07:46.300Z,99866.97
2022-09-15T10:13:06.801Z,99864.78
2022-09-15T10:18:30.818Z,99867.38
2022-09-15T10:23:51.719Z,99878.34
2022-09-15T10:29:18.061Z,99867.59
2022-09-15T10:34:39.160Z,99868.03
2022-09-15T10:47:09.314Z,99858.59
2022-09-15T10:53:07.671Z,99860.56
2022-09-15T10:58:52.709Z,99868.38
2022-09-15T11:04:32.533Z,99879.50
2022-09-15T11:10:15.523Z,99883.16
2022-09-15T11:15:49.851Z,99872.59
2022-09-15T11:21:34.326Z,99869.19
2022-09-15T11:26:57.611Z,99859.72
2022-09-15T11:32:25.985Z,99858.63
2022-09-15T11:37:50.709Z,99858.06
2022-09-15T11:43:20.481Z,99843.94
2022-09-15T11:49:02.767Z,99855.59
2022-09-15T11:54:37.607Z,99848.31
2022-09-15T12:00:14.610Z,99851.75
2022-09-15T12:05:55.926Z,99846.66
2022-09-15T12:11:22.579Z,99851.22
2022-09-15T12:16:44.630Z,99852.38
2022-09-15T12:22:14.760Z,99859.88
2022-09-15T12:27:35.514Z,99846.81
2022-09-15T12:32:56.632Z,99841.22
2022-09-15T12:38:17.214Z,99845.25
2022-09-15T12:43:38.002Z,99840.47
2022-09-15T12:49:03.068Z,99846.09
2022-09-15T12:54:29.643Z,99834.75
2022-09-15T13:00:34.115Z,99841.91
2022-09-15T13:06:14.978Z,99854.78
2022-09-15T13:17:17.237Z,99835.41
2022-09-15T13:22:43.879Z,99829.00
2022-09-15T13:28:05.268Z,99833.97
2022-09-15T13:39:49.888Z,99827.06
2022-09-15T13:45:14.013Z,99826.44
2022-09-15T13:50:41.995Z,99822.06
2022-09-15T13:56:09.578Z,99822.03
2022-09-15T14:01:34.823Z,99805.59
2022-09-15T14:07:00.916Z,99805.59
2022-09-15T14:12:22.683Z,99785.97
2022-09-15T14:17:46.744Z,99794.22
2022-09-15T14:23:16.099Z,99795.25
2022-09-15T14:28:37.462Z,99799.47
2022-09-15T14:33:59.225Z,99797.91
2022-09-15T14:39:22.234Z,99799.72
2022-09-15T14:50:26.350Z,99808.25
2022-09-15T14:55:55.737Z,99810.69
2022-09-15T15:01:25.976Z,99814.69
2022-09-15T15:07:13.473Z,99839.16
2022-09-15T15:12:50.843Z,99858.94
2022-09-15T15:18:32.254Z,99856.41
2022-09-15T15:23:53.830Z,99853.50
2022-09-15T15:29:44.098Z,99859.66
2022-09-15T15:35:05.238Z,99850.16
2022-09-15T15:40:27.056Z,99853.50
2022-09-15T15:46:03.365Z,99850.59
2022-09-15T15:51:24.261Z,99843.28
2022-09-15T15:56:45.219Z,99847.50
2022-09-15T16:02:10.795Z,99840.41
2022-09-15T16:07:33.497Z,99849.19
2022-09-15T16:12:55.260Z,99842.94
2022-09-15T16:18:16.611Z,99840.78
2022-09-15T16:23:37.762Z,99847.44
2022-09-15T16:28:58.609Z,99842.31
2022-09-15T16:34:19.628Z,99838.59
2022-09-15T16:39:40.188Z,99847.19
2022-09-15T16:45:02.959Z,99848.50
2022-09-15T16:50:23.667Z,99848.41
2022-09-15T16:55:52.171Z,99850.88
2022-09-15T17:01:18.975Z,99845.38
2022-09-15T17:06:40.112Z,99837.63
2022-09-15T17:12:00.967Z,99844.25
2022-09-15T17:17:25.505Z,99850.22
2022-09-15T17:22:48.125Z,99844.81
2022-09-15T17:28:08.800Z,99854.25
2022-09-15T17:33:31.627Z,99858.44
2022-09-15T17:38:52.947Z,99857.16
2022-09-15T17:44:14.196Z,99869.16
2022-09-15T17:49:35.099Z,99875.63
2022-09-15T17:54:56.362Z,99870.53
2022-09-15T18:00:19.952Z,99874.88
2022-09-15T18:05:40.862Z,99872.19
2022-09-15T18:11:02.512Z,99888.56
2022-09-15T18:16:23.534Z,99883.38
2022-09-15T18:21:44.785Z,99877.97
2022-09-15T18:27:06.292Z,99881.25
2022-09-15T18:32:27.342Z,99892.97
2022-09-15T18:37:53.667Z,99900.56
2022-09-15T18:43:15.478Z,99896.69
2022-09-15T18:48:36.110Z,99899.19
2022-09-15T18:53:57.482Z,99902.47
2022-09-15T18:59:18.350Z,99901.34
2022-09-15T19:04:40.722Z,99912.09
2022-09-15T19:10:01.675Z,99906.78
2022-09-15T19:15:25.294Z,99909.91
2022-09-15T19:20:45.937Z,99905.72
2022-09-15T19:26:11.920Z,99910.69
2022-09-15T19:31:32.824Z,99903.03
2022-09-15T19:36:53.703Z,99902.75
2022-09-15T19:47:41.329Z,99903.44
2022-09-15T19:53:02.374Z,99907.41
2022-09-15T19:58:23.050Z,99913.31
2022-09-15T20:03:44.314Z,99913.19
2022-09-15T20:09:06.352Z,99919.78
2022-09-15T20:14:27.451Z,99936.78
2022-09-15T20:19:48.344Z,99934.03
2022-09-15T20:25:09.143Z,99929.59
2022-09-15T20:30:29.850Z,99935.31
2022-09-15T20:35:50.605Z,99936.75
2022-09-15T20:41:12.776Z,99933.94
2022-09-15T20:46:33.621Z,99929.28
2022-09-15T20:51:54.451Z,99921.28
2022-09-15T20:57:15.155Z,99922.78
2022-09-15T21:02:35.731Z,99935.50
2022-09-15T21:07:56.550Z,99933.91
2022-09-15T21:13:19.129Z,99927.50
2022-09-15T21:18:41.984Z,99931.72
2022-09-15T21:24:06.205Z,99936.81
2022-09-15T21:29:28.483Z,99941.16
2022-09-15T21:34:49.400Z,99934.16
2022-09-15T21:40:10.290Z,99946.31
